sensor_id;sensor_type;location;lat;lon;timestamp;P1;durP1;ratioP1;P2;durP2;ratioP2
17796;SDS011;55596;53.554;9.916;2023-03-31T00:02:11;42.70;;;7.70;;
17796;SDS011;55596;53.554;9.916;2023-03-31T00:04:38;37.27;;;5.73;;
17796;SDS011;55596;53.554;9.916;2023-03-31T00:07:10;34.57;;;6.27;;
17796;SDS011;55596;53.554;9.916;2023-03-31T00:09:38;45.23;;;7.30;;
17796;SDS011;55596;53.554;9.916;2023-03-31T00:12:06;30.33;;;5.90;;
17796;SDS011;55596;53.554;9.916;2023-03-31T00:14:33;39.00;;;6.47;;
17796;SDS011;55596;53.554;9.916;2023-03-31T00:17:04;26.00;;;5.43;;
17796;SDS011;55596;53.554;9.916;2023-03-31T00:19:41;27.63;;;5.20;;
17796;SDS011;55596;53.554;9.916;2023-03-31T00:22:08;32.13;;;5.87;;
17796;SDS011;55596;53.554;9.916;2023-03-31T00:24:35;39.97;;;5.43;;
17796;SDS011;55596;53.554;9.916;2023-03-31T00:27:02;27.93;;;5.60;;
17796;SDS011;55596;53.554;9.916;2023-03-31T00:29:30;30.10;;;5.07;;
17796;SDS011;55596;53.554;9.916;2023-03-31T00:32:01;35.13;;;6.00;;
17796;SDS011;55596;53.554;9.916;2023-03-31T00:34:28;38.40;;;5.77;;
17796;SDS011;55596;53.554;9.916;2023-03-31T00:36:57;35.70;;;6.10;;
17796;SDS011;55596;53.554;9.916;2023-03-31T00:39:27;33.83;;;5.80;;
17796;SDS011;55596;53.554;9.916;2023-03-31T00:41:57;31.73;;;6.80;;
17796;SDS011;55596;53.554;9.916;2023-03-31T00:44:28;33.73;;;5.50;;
17796;SDS011;55596;53.554;9.916;2023-03-31T00:46:58;30.50;;;5.73;;
17796;SDS011;55596;53.554;9.916;2023-03-31T00:49:32;27.40;;;5.27;;
17796;SDS011;55596;53.554;9.916;2023-03-31T00:52:02;32.33;;;5.63;;
17796;SDS011;55596;53.554;9.916;2023-03-31T00:54:32;35.20;;;5.37;;
17796;SDS011;55596;53.554;9.916;2023-03-31T00:57:01;29.40;;;5.27;;
17796;SDS011;55596;53.554;9.916;2023-03-31T00:59:31;34.07;;;6.20;;
17796;SDS011;55596;53.554;9.916;2023-03-31T01:02:02;40.23;;;5.83;;
17796;SDS011;55596;53.554;9.916;2023-03-31T01:04:31;34.23;;;5.00;;
17796;SDS011;55596;53.554;9.916;2023-03-31T01:07:04;33.60;;;6.20;;
17796;SDS011;55596;53.554;9.916;2023-03-31T01:09:36;29.77;;;5.73;;
17796;SDS011;55596;53.554;9.916;2023-03-31T01:12:06;22.20;;;4.90;;
17796;SDS011;55596;53.554;9.916;2023-03-31T01:14:34;31.13;;;5.70;;
17796;SDS011;55596;53.554;9.916;2023-03-31T01:17:01;32.77;;;5.60;;
17796;SDS011;55596;53.554;9.916;2023-03-31T01:19:32;29.63;;;5.00;;
17796;SDS011;55596;53.554;9.916;2023-03-31T01:22:16;33.83;;;5.40;;
17796;SDS011;55596;53.554;9.916;2023-03-31T01:25:30;28.40;;;4.87;;
17796;SDS011;55596;53.554;9.916;2023-03-31T01:28:19;28.97;;;5.60;;
17796;SDS011;55596;53.554;9.916;2023-03-31T01:31:05;36.47;;;5.23;;
17796;SDS011;55596;53.554;9.916;2023-03-31T01:33:59;29.70;;;5.83;;
17796;SDS011;55596;53.554;9.916;2023-03-31T01:37:16;26.30;;;5.00;;
17796;SDS011;55596;53.554;9.916;2023-03-31T01:40:02;24.80;;;4.50;;
17796;SDS011;55596;53.554;9.916;2023-03-31T01:42:48;29.33;;;5.07;;
17796;SDS011;55596;53.554;9.916;2023-03-31T01:45:21;29.17;;;4.73;;
17796;SDS011;55596;53.554;9.916;2023-03-31T01:48:04;27.77;;;5.27;;
17796;SDS011;55596;53.554;9.916;2023-03-31T01:50:37;22.47;;;4.53;;
17796;SDS011;55596;53.554;9.916;2023-03-31T01:53:13;20.57;;;4.60;;
17796;SDS011;55596;53.554;9.916;2023-03-31T01:55:46;27.70;;;4.90;;
17796;SDS011;55596;53.554;9.916;2023-03-31T01:58:18;28.67;;;5.30;;
17796;SDS011;55596;53.554;9.916;2023-03-31T02:00:48;28.00;;;5.27;;
17796;SDS011;55596;53.554;9.916;2023-03-31T02:03:21;19.27;;;4.00;;
17796;SDS011;55596;53.554;9.916;2023-03-31T02:05:54;27.50;;;4.87;;
17796;SDS011;55596;53.554;9.916;2023-03-31T02:08:25;27.63;;;4.60;;
17796;SDS011;55596;53.554;9.916;2023-03-31T02:10:56;23.70;;;4.57;;
17796;SDS011;55596;53.554;9.916;2023-03-31T02:13:25;24.63;;;4.77;;
17796;SDS011;55596;53.554;9.916;2023-03-31T02:15:55;23.70;;;5.30;;
17796;SDS011;55596;53.554;9.916;2023-03-31T02:18:26;22.53;;;5.60;;
17796;SDS011;55596;53.554;9.916;2023-03-31T02:20:57;31.70;;;5.90;;
17796;SDS011;55596;53.554;9.916;2023-03-31T02:23:26;25.97;;;5.50;;
17796;SDS011;55596;53.554;9.916;2023-03-31T02:25:58;23.03;;;6.40;;
17796;SDS011;55596;53.554;9.916;2023-03-31T02:28:28;23.00;;;6.23;;
17796;SDS011;55596;53.554;9.916;2023-03-31T02:30:59;24.57;;;7.23;;
17796;SDS011;55596;53.554;9.916;2023-03-31T02:33:38;23.53;;;5.70;;
17796;SDS011;55596;53.554;9.916;2023-03-31T02:36:05;24.03;;;6.30;;
17796;SDS011;55596;53.554;9.916;2023-03-31T02:38:35;26.93;;;5.87;;
17796;SDS011;55596;53.554;9.916;2023-03-31T02:41:06;19.50;;;6.20;;
17796;SDS011;55596;53.554;9.916;2023-03-31T02:43:33;31.57;;;6.97;;
17796;SDS011;55596;53.554;9.916;2023-03-31T02:46:00;29.53;;;6.17;;
17796;SDS011;55596;53.554;9.916;2023-03-31T02:48:28;21.73;;;5.83;;
17796;SDS011;55596;53.554;9.916;2023-03-31T02:51:02;21.97;;;6.73;;
17796;SDS011;55596;53.554;9.916;2023-03-31T02:53:48;18.80;;;6.30;;
17796;SDS011;55596;53.554;9.916;2023-03-31T02:56:43;20.03;;;6.60;;
17796;SDS011;55596;53.554;9.916;2023-03-31T02:59:26;28.87;;;7.63;;
17796;SDS011;55596;53.554;9.916;2023-03-31T03:02:07;17.30;;;6.67;;
17796;SDS011;55596;53.554;9.916;2023-03-31T03:07:35;18.17;;;6.73;;
17796;SDS011;55596;53.554;9.916;2023-03-31T03:10:08;25.93;;;6.90;;
17796;SDS011;55596;53.554;9.916;2023-03-31T03:12:42;26.20;;;8.03;;
17796;SDS011;55596;53.554;9.916;2023-03-31T03:15:16;21.63;;;7.53;;
17796;SDS011;55596;53.554;9.916;2023-03-31T03:17:46;20.93;;;7.20;;
17796;SDS011;55596;53.554;9.916;2023-03-31T03:20:14;21.63;;;7.50;;
17796;SDS011;55596;53.554;9.916;2023-03-31T03:22:45;23.07;;;7.17;;
17796;SDS011;55596;53.554;9.916;2023-03-31T03:25:12;22.20;;;7.37;;
17796;SDS011;55596;53.554;9.916;2023-03-31T03:27:43;23.93;;;8.63;;
17796;SDS011;55596;53.554;9.916;2023-03-31T03:30:10;29.07;;;7.87;;
17796;SDS011;55596;53.554;9.916;2023-03-31T03:32:38;22.80;;;7.40;;
17796;SDS011;55596;53.554;9.916;2023-03-31T03:35:07;26.70;;;7.67;;
17796;SDS011;55596;53.554;9.916;2023-03-31T03:37:35;25.00;;;8.17;;
17796;SDS011;55596;53.554;9.916;2023-03-31T03:40:02;28.47;;;8.70;;
17796;SDS011;55596;53.554;9.916;2023-03-31T03:42:30;27.60;;;7.90;;
17796;SDS011;55596;53.554;9.916;2023-03-31T03:44:58;23.80;;;7.73;;
17796;SDS011;55596;53.554;9.916;2023-03-31T03:47:25;23.90;;;7.10;;
17796;SDS011;55596;53.554;9.916;2023-03-31T03:49:52;17.53;;;7.23;;
17796;SDS011;55596;53.554;9.916;2023-03-31T03:52:19;25.23;;;7.93;;
17796;SDS011;55596;53.554;9.916;2023-03-31T03:54:46;17.20;;;6.83;;
17796;SDS011;55596;53.554;9.916;2023-03-31T03:57:13;18.47;;;7.37;;
17796;SDS011;55596;53.554;9.916;2023-03-31T03:59:40;21.67;;;6.77;;
17796;SDS011;55596;53.554;9.916;2023-03-31T04:02:08;22.47;;;6.80;;
17796;SDS011;55596;53.554;9.916;2023-03-31T04:04:36;22.83;;;7.60;;
17796;SDS011;55596;53.554;9.916;2023-03-31T04:07:02;15.40;;;6.87;;
17796;SDS011;55596;53.554;9.916;2023-03-31T04:09:29;22.20;;;6.83;;
17796;SDS011;55596;53.554;9.916;2023-03-31T04:11:56;18.47;;;7.03;;
17796;SDS011;55596;53.554;9.916;2023-03-31T04:14:23;19.40;;;7.80;;
17796;SDS011;55596;53.554;9.916;2023-03-31T04:16:50;19.97;;;7.00;;
17796;SDS011;55596;53.554;9.916;2023-03-31T04:19:21;18.47;;;6.90;;
17796;SDS011;55596;53.554;9.916;2023-03-31T04:21:50;25.03;;;7.70;;
17796;SDS011;55596;53.554;9.916;2023-03-31T04:24:22;17.33;;;7.20;;
17796;SDS011;55596;53.554;9.916;2023-03-31T04:26:57;18.70;;;7.30;;
17796;SDS011;55596;53.554;9.916;2023-03-31T04:29:24;18.33;;;7.20;;
17796;SDS011;55596;53.554;9.916;2023-03-31T04:31:52;22.63;;;8.07;;
17796;SDS011;55596;53.554;9.916;2023-03-31T04:34:24;21.50;;;7.67;;
17796;SDS011;55596;53.554;9.916;2023-03-31T04:36:59;22.37;;;8.37;;
17796;SDS011;55596;53.554;9.916;2023-03-31T04:39:26;19.57;;;8.23;;
17796;SDS011;55596;53.554;9.916;2023-03-31T04:41:55;28.10;;;9.10;;
17796;SDS011;55596;53.554;9.916;2023-03-31T04:44:22;20.47;;;8.90;;
17796;SDS011;55596;53.554;9.916;2023-03-31T04:46:50;26.67;;;10.00;;
17796;SDS011;55596;53.554;9.916;2023-03-31T04:49:17;24.70;;;8.87;;
17796;SDS011;55596;53.554;9.916;2023-03-31T04:51:45;22.10;;;9.23;;
17796;SDS011;55596;53.554;9.916;2023-03-31T04:54:12;22.90;;;9.30;;
17796;SDS011;55596;53.554;9.916;2023-03-31T04:56:39;22.20;;;9.20;;
17796;SDS011;55596;53.554;9.916;2023-03-31T04:59:05;21.67;;;9.50;;
17796;SDS011;55596;53.554;9.916;2023-03-31T05:01:33;21.60;;;9.73;;
17796;SDS011;55596;53.554;9.916;2023-03-31T05:04:00;22.77;;;9.67;;
17796;SDS011;55596;53.554;9.916;2023-03-31T05:06:27;21.83;;;9.70;;
17796;SDS011;55596;53.554;9.916;2023-03-31T05:08:55;21.70;;;9.47;;
17796;SDS011;55596;53.554;9.916;2023-03-31T05:11:22;22.60;;;9.63;;
17796;SDS011;55596;53.554;9.916;2023-03-31T05:13:50;21.20;;;9.97;;
17796;SDS011;55596;53.554;9.916;2023-03-31T05:16:16;23.27;;;9.40;;
17796;SDS011;55596;53.554;9.916;2023-03-31T05:18:43;19.10;;;9.07;;
17796;SDS011;55596;53.554;9.916;2023-03-31T05:21:12;18.13;;;9.40;;
17796;SDS011;55596;53.554;9.916;2023-03-31T05:23:40;22.23;;;9.17;;
17796;SDS011;55596;53.554;9.916;2023-03-31T05:26:10;20.27;;;8.23;;
17796;SDS011;55596;53.554;9.916;2023-03-31T05:28:37;18.60;;;9.07;;
17796;SDS011;55596;53.554;9.916;2023-03-31T05:31:05;22.57;;;8.93;;
17796;SDS011;55596;53.554;9.916;2023-03-31T05:33:33;22.20;;;8.97;;
17796;SDS011;55596;53.554;9.916;2023-03-31T05:36:04;22.00;;;8.57;;
17796;SDS011;55596;53.554;9.916;2023-03-31T05:38:32;22.37;;;9.40;;
17796;SDS011;55596;53.554;9.916;2023-03-31T05:40:59;16.87;;;8.47;;
17796;SDS011;55596;53.554;9.916;2023-03-31T05:43:27;19.80;;;9.00;;
17796;SDS011;55596;53.554;9.916;2023-03-31T05:45:54;26.77;;;9.30;;
17796;SDS011;55596;53.554;9.916;2023-03-31T05:48:23;14.53;;;8.27;;
17796;SDS011;55596;53.554;9.916;2023-03-31T05:50:50;16.97;;;7.60;;
17796;SDS011;55596;53.554;9.916;2023-03-31T05:53:21;19.03;;;8.30;;
17796;SDS011;55596;53.554;9.916;2023-03-31T05:55:48;16.03;;;8.20;;
17796;SDS011;55596;53.554;9.916;2023-03-31T05:58:15;19.93;;;8.17;;
17796;SDS011;55596;53.554;9.916;2023-03-31T06:00:44;19.50;;;7.73;;
17796;SDS011;55596;53.554;9.916;2023-03-31T06:03:11;19.40;;;8.00;;
17796;SDS011;55596;53.554;9.916;2023-03-31T06:05:38;18.40;;;7.50;;
17796;SDS011;55596;53.554;9.916;2023-03-31T06:08:05;17.37;;;7.53;;
17796;SDS011;55596;53.554;9.916;2023-03-31T06:10:32;18.33;;;7.50;;
17796;SDS011;55596;53.554;9.916;2023-03-31T06:13:00;18.33;;;7.27;;
17796;SDS011;55596;53.554;9.916;2023-03-31T06:15:27;15.67;;;7.13;;
17796;SDS011;55596;53.554;9.916;2023-03-31T06:17:55;19.73;;;6.90;;
17796;SDS011;55596;53.554;9.916;2023-03-31T06:20:22;19.67;;;7.23;;
17796;SDS011;55596;53.554;9.916;2023-03-31T06:22:49;17.60;;;6.87;;
17796;SDS011;55596;53.554;9.916;2023-03-31T06:25:16;17.33;;;6.23;;
17796;SDS011;55596;53.554;9.916;2023-03-31T06:30:14;21.93;;;6.70;;
17796;SDS011;55596;53.554;9.916;2023-03-31T06:32:41;17.57;;;6.60;;
17796;SDS011;55596;53.554;9.916;2023-03-31T06:35:10;16.53;;;6.53;;
17796;SDS011;55596;53.554;9.916;2023-03-31T06:37:36;13.17;;;6.10;;
17796;SDS011;55596;53.554;9.916;2023-03-31T06:40:04;13.77;;;6.73;;
17796;SDS011;55596;53.554;9.916;2023-03-31T06:42:31;15.23;;;6.50;;
17796;SDS011;55596;53.554;9.916;2023-03-31T06:44:58;22.03;;;6.73;;
17796;SDS011;55596;53.554;9.916;2023-03-31T06:47:25;19.70;;;6.40;;
17796;SDS011;55596;53.554;9.916;2023-03-31T06:49:52;15.67;;;5.97;;
17796;SDS011;55596;53.554;9.916;2023-03-31T06:52:21;14.83;;;6.63;;
17796;SDS011;55596;53.554;9.916;2023-03-31T06:54:47;10.87;;;5.37;;
17796;SDS011;55596;53.554;9.916;2023-03-31T06:57:14;14.03;;;5.53;;
17796;SDS011;55596;53.554;9.916;2023-03-31T06:59:41;14.67;;;6.13;;
17796;SDS011;55596;53.554;9.916;2023-03-31T07:02:08;13.93;;;6.00;;
17796;SDS011;55596;53.554;9.916;2023-03-31T07:04:35;13.83;;;5.87;;
17796;SDS011;55596;53.554;9.916;2023-03-31T07:07:02;16.27;;;5.67;;
17796;SDS011;55596;53.554;9.916;2023-03-31T07:09:30;13.90;;;5.50;;
17796;SDS011;55596;53.554;9.916;2023-03-31T07:11:57;16.30;;;6.03;;
17796;SDS011;55596;53.554;9.916;2023-03-31T07:14:24;14.37;;;5.93;;
17796;SDS011;55596;53.554;9.916;2023-03-31T07:16:51;13.27;;;5.87;;
17796;SDS011;55596;53.554;9.916;2023-03-31T07:19:18;13.80;;;5.13;;
17796;SDS011;55596;53.554;9.916;2023-03-31T07:21:45;14.27;;;5.83;;
17796;SDS011;55596;53.554;9.916;2023-03-31T07:24:14;13.10;;;5.00;;
17796;SDS011;55596;53.554;9.916;2023-03-31T07:26:43;11.43;;;4.83;;
17796;SDS011;55596;53.554;9.916;2023-03-31T07:29:09;13.20;;;5.20;;
17796;SDS011;55596;53.554;9.916;2023-03-31T07:31:36;14.00;;;5.53;;
17796;SDS011;55596;53.554;9.916;2023-03-31T07:34:03;9.60;;;4.73;;
17796;SDS011;55596;53.554;9.916;2023-03-31T07:36:30;13.33;;;4.93;;
17796;SDS011;55596;53.554;9.916;2023-03-31T07:38:57;9.63;;;4.60;;
17796;SDS011;55596;53.554;9.916;2023-03-31T07:41:24;12.60;;;4.20;;
17796;SDS011;55596;53.554;9.916;2023-03-31T07:43:53;10.07;;;4.30;;
17796;SDS011;55596;53.554;9.916;2023-03-31T07:46:20;10.10;;;4.47;;
17796;SDS011;55596;53.554;9.916;2023-03-31T07:48:49;12.57;;;4.83;;
17796;SDS011;55596;53.554;9.916;2023-03-31T07:51:17;9.63;;;4.47;;
17796;SDS011;55596;53.554;9.916;2023-03-31T07:53:46;16.00;;;5.33;;
17796;SDS011;55596;53.554;9.916;2023-03-31T07:56:16;12.07;;;4.43;;
17796;SDS011;55596;53.554;9.916;2023-03-31T07:58:44;13.80;;;5.23;;
17796;SDS011;55596;53.554;9.916;2023-03-31T08:01:13;15.00;;;5.53;;
17796;SDS011;55596;53.554;9.916;2023-03-31T08:03:43;15.53;;;5.93;;
17796;SDS011;55596;53.554;9.916;2023-03-31T08:06:10;13.17;;;5.47;;
17796;SDS011;55596;53.554;9.916;2023-03-31T08:08:37;10.23;;;5.67;;
17796;SDS011;55596;53.554;9.916;2023-03-31T08:11:07;10.83;;;4.83;;
17796;SDS011;55596;53.554;9.916;2023-03-31T08:13:33;14.03;;;6.10;;
17796;SDS011;55596;53.554;9.916;2023-03-31T08:16:02;14.13;;;5.70;;
17796;SDS011;55596;53.554;9.916;2023-03-31T08:18:30;15.23;;;5.30;;
17796;SDS011;55596;53.554;9.916;2023-03-31T08:21:00;11.13;;;5.23;;
17796;SDS011;55596;53.554;9.916;2023-03-31T08:23:27;15.37;;;5.70;;
17796;SDS011;55596;53.554;9.916;2023-03-31T08:25:54;13.00;;;5.60;;
17796;SDS011;55596;53.554;9.916;2023-03-31T08:28:31;11.70;;;5.37;;
17796;SDS011;55596;53.554;9.916;2023-03-31T08:31:01;13.57;;;4.90;;
17796;SDS011;55596;53.554;9.916;2023-03-31T08:33:30;12.77;;;5.97;;
17796;SDS011;55596;53.554;9.916;2023-03-31T08:36:00;15.47;;;5.87;;
17796;SDS011;55596;53.554;9.916;2023-03-31T08:38:28;13.67;;;6.10;;
17796;SDS011;55596;53.554;9.916;2023-03-31T08:40:57;9.20;;;5.07;;
17796;SDS011;55596;53.554;9.916;2023-03-31T08:43:26;13.40;;;4.77;;
17796;SDS011;55596;53.554;9.916;2023-03-31T08:45:57;12.10;;;4.37;;
17796;SDS011;55596;53.554;9.916;2023-03-31T08:48:26;12.23;;;5.13;;
17796;SDS011;55596;53.554;9.916;2023-03-31T08:50:57;6.80;;;4.43;;
17796;SDS011;55596;53.554;9.916;2023-03-31T08:53:28;12.97;;;4.93;;
17796;SDS011;55596;53.554;9.916;2023-03-31T08:55:59;12.27;;;5.33;;
17796;SDS011;55596;53.554;9.916;2023-03-31T08:58:32;12.63;;;5.10;;
17796;SDS011;55596;53.554;9.916;2023-03-31T09:01:07;13.63;;;4.70;;
17796;SDS011;55596;53.554;9.916;2023-03-31T09:03:45;13.73;;;5.33;;
17796;SDS011;55596;53.554;9.916;2023-03-31T09:06:25;9.97;;;5.03;;
17796;SDS011;55596;53.554;9.916;2023-03-31T09:08:59;8.97;;;4.40;;
17796;SDS011;55596;53.554;9.916;2023-03-31T09:11:29;11.83;;;4.97;;
17796;SDS011;55596;53.554;9.916;2023-03-31T09:14:09;12.20;;;5.20;;
17796;SDS011;55596;53.554;9.916;2023-03-31T09:16:44;11.13;;;5.00;;
17796;SDS011;55596;53.554;9.916;2023-03-31T09:19:18;13.90;;;4.67;;
17796;SDS011;55596;53.554;9.916;2023-03-31T09:21:53;12.53;;;4.17;;
17796;SDS011;55596;53.554;9.916;2023-03-31T09:24:22;11.37;;;4.67;;
17796;SDS011;55596;53.554;9.916;2023-03-31T09:26:53;7.63;;;3.60;;
17796;SDS011;55596;53.554;9.916;2023-03-31T09:29:29;8.07;;;3.67;;
17796;SDS011;55596;53.554;9.916;2023-03-31T09:32:01;8.67;;;3.80;;
17796;SDS011;55596;53.554;9.916;2023-03-31T09:34:39;12.43;;;4.40;;
17796;SDS011;55596;53.554;9.916;2023-03-31T09:37:08;10.90;;;4.30;;
17796;SDS011;55596;53.554;9.916;2023-03-31T09:39:36;10.20;;;3.80;;
17796;SDS011;55596;53.554;9.916;2023-03-31T09:42:04;11.40;;;3.70;;
17796;SDS011;55596;53.554;9.916;2023-03-31T09:44:33;7.53;;;3.10;;
17796;SDS011;55596;53.554;9.916;2023-03-31T09:47:03;8.50;;;2.67;;
17796;SDS011;55596;53.554;9.916;2023-03-31T09:49:33;8.73;;;3.63;;
17796;SDS011;55596;53.554;9.916;2023-03-31T09:52:02;8.30;;;3.30;;
17796;SDS011;55596;53.554;9.916;2023-03-31T09:54:37;9.90;;;3.30;;
17796;SDS011;55596;53.554;9.916;2023-03-31T09:57:13;7.73;;;3.13;;
17796;SDS011;55596;53.554;9.916;2023-03-31T09:59:49;11.53;;;3.93;;
17796;SDS011;55596;53.554;9.916;2023-03-31T10:02:20;8.07;;;3.40;;
17796;SDS011;55596;53.554;9.916;2023-03-31T10:04:59;11.80;;;3.90;;
17796;SDS011;55596;53.554;9.916;2023-03-31T10:07:27;11.53;;;3.57;;
17796;SDS011;55596;53.554;9.916;2023-03-31T10:09:55;11.57;;;4.43;;
17796;SDS011;55596;53.554;9.916;2023-03-31T10:12:23;10.57;;;3.73;;
17796;SDS011;55596;53.554;9.916;2023-03-31T10:14:54;10.73;;;4.60;;
17796;SDS011;55596;53.554;9.916;2023-03-31T10:17:37;11.60;;;4.23;;
17796;SDS011;55596;53.554;9.916;2023-03-31T10:20:16;9.17;;;4.33;;
17796;SDS011;55596;53.554;9.916;2023-03-31T10:22:49;9.33;;;3.87;;
17796;SDS011;55596;53.554;9.916;2023-03-31T10:25:19;5.30;;;3.67;;
17796;SDS011;55596;53.554;9.916;2023-03-31T10:27:50;11.93;;;4.17;;
17796;SDS011;55596;53.554;9.916;2023-03-31T10:30:20;9.10;;;4.53;;
17796;SDS011;55596;53.554;9.916;2023-03-31T10:32:49;7.87;;;3.63;;
17796;SDS011;55596;53.554;9.916;2023-03-31T10:35:21;5.87;;;3.43;;
17796;SDS011;55596;53.554;9.916;2023-03-31T10:37:50;8.50;;;3.20;;
17796;SDS011;55596;53.554;9.916;2023-03-31T10:40:23;7.60;;;2.93;;
17796;SDS011;55596;53.554;9.916;2023-03-31T10:42:58;8.50;;;3.30;;
17796;SDS011;55596;53.554;9.916;2023-03-31T10:45:29;6.70;;;3.13;;
17796;SDS011;55596;53.554;9.916;2023-03-31T10:48:01;7.23;;;3.17;;
17796;SDS011;55596;53.554;9.916;2023-03-31T10:50:29;8.70;;;3.37;;
17796;SDS011;55596;53.554;9.916;2023-03-31T10:53:02;5.67;;;3.40;;
17796;SDS011;55596;53.554;9.916;2023-03-31T10:55:34;7.77;;;3.30;;
17796;SDS011;55596;53.554;9.916;2023-03-31T10:58:08;11.37;;;4.13;;
17796;SDS011;55596;53.554;9.916;2023-03-31T11:00:50;6.70;;;2.67;;
17796;SDS011;55596;53.554;9.916;2023-03-31T11:03:39;10.70;;;3.10;;
17796;SDS011;55596;53.554;9.916;2023-03-31T11:06:19;5.57;;;2.73;;
17796;SDS011;55596;53.554;9.916;2023-03-31T11:08:52;6.17;;;2.60;;
17796;SDS011;55596;53.554;9.916;2023-03-31T11:11:33;6.60;;;3.10;;
17796;SDS011;55596;53.554;9.916;2023-03-31T11:14:13;7.83;;;2.90;;
17796;SDS011;55596;53.554;9.916;2023-03-31T11:16:47;5.37;;;2.67;;
17796;SDS011;55596;53.554;9.916;2023-03-31T11:19:22;8.23;;;2.90;;
17796;SDS011;55596;53.554;9.916;2023-03-31T11:22:00;5.17;;;2.50;;
17796;SDS011;55596;53.554;9.916;2023-03-31T11:24:37;7.33;;;2.80;;
17796;SDS011;55596;53.554;9.916;2023-03-31T11:27:30;5.57;;;2.50;;
17796;SDS011;55596;53.554;9.916;2023-03-31T11:30:07;8.57;;;2.80;;
17796;SDS011;55596;53.554;9.916;2023-03-31T11:32:46;6.77;;;2.33;;
17796;SDS011;55596;53.554;9.916;2023-03-31T11:35:28;6.20;;;2.70;;
17796;SDS011;55596;53.554;9.916;2023-03-31T11:41:01;4.83;;;2.10;;
17796;SDS011;55596;53.554;9.916;2023-03-31T11:43:35;7.97;;;2.70;;
17796;SDS011;55596;53.554;9.916;2023-03-31T11:46:09;5.67;;;2.30;;
17796;SDS011;55596;53.554;9.916;2023-03-31T11:48:40;9.30;;;2.77;;
17796;SDS011;55596;53.554;9.916;2023-03-31T11:51:12;5.47;;;2.37;;
17796;SDS011;55596;53.554;9.916;2023-03-31T11:53:43;8.67;;;2.27;;
17796;SDS011;55596;53.554;9.916;2023-03-31T11:56:12;8.50;;;2.63;;
17796;SDS011;55596;53.554;9.916;2023-03-31T11:58:44;6.40;;;2.60;;
17796;SDS011;55596;53.554;9.916;2023-03-31T12:01:15;10.30;;;3.13;;
17796;SDS011;55596;53.554;9.916;2023-03-31T12:03:51;6.67;;;3.13;;
17796;SDS011;55596;53.554;9.916;2023-03-31T12:06:26;8.33;;;2.97;;
17796;SDS011;55596;53.554;9.916;2023-03-31T12:09:06;8.47;;;3.00;;
17796;SDS011;55596;53.554;9.916;2023-03-31T12:11:39;8.47;;;3.33;;
17796;SDS011;55596;53.554;9.916;2023-03-31T12:14:14;6.87;;;3.67;;
17796;SDS011;55596;53.554;9.916;2023-03-31T12:16:50;9.23;;;3.63;;
17796;SDS011;55596;53.554;9.916;2023-03-31T12:19:20;9.30;;;3.70;;
17796;SDS011;55596;53.554;9.916;2023-03-31T12:21:53;6.53;;;3.90;;
17796;SDS011;55596;53.554;9.916;2023-03-31T12:24:24;12.17;;;4.60;;
17796;SDS011;55596;53.554;9.916;2023-03-31T12:26:53;11.87;;;4.50;;
17796;SDS011;55596;53.554;9.916;2023-03-31T12:29:30;10.07;;;4.07;;
17796;SDS011;55596;53.554;9.916;2023-03-31T12:32:00;9.87;;;4.80;;
17796;SDS011;55596;53.554;9.916;2023-03-31T12:34:31;13.97;;;5.23;;
17796;SDS011;55596;53.554;9.916;2023-03-31T12:37:07;13.50;;;5.77;;
17796;SDS011;55596;53.554;9.916;2023-03-31T12:39:51;14.13;;;5.50;;
17796;SDS011;55596;53.554;9.916;2023-03-31T12:42:32;16.27;;;6.10;;
17796;SDS011;55596;53.554;9.916;2023-03-31T12:45:19;14.03;;;7.60;;
17796;SDS011;55596;53.554;9.916;2023-03-31T12:48:00;11.70;;;6.00;;
17796;SDS011;55596;53.554;9.916;2023-03-31T12:50:52;13.50;;;5.83;;
17796;SDS011;55596;53.554;9.916;2023-03-31T12:53:31;41.57;;;19.27;;
17796;SDS011;55596;53.554;9.916;2023-03-31T12:56:03;7.60;;;5.50;;
17796;SDS011;55596;53.554;9.916;2023-03-31T12:58:41;8.10;;;5.30;;
17796;SDS011;55596;53.554;9.916;2023-03-31T13:01:11;11.80;;;6.00;;
17796;SDS011;55596;53.554;9.916;2023-03-31T13:03:50;9.57;;;5.00;;
17796;SDS011;55596;53.554;9.916;2023-03-31T13:12:17;7.90;;;3.80;;
17796;SDS011;55596;53.554;9.916;2023-03-31T13:14:47;7.00;;;3.63;;
17796;SDS011;55596;53.554;9.916;2023-03-31T13:17:26;7.70;;;3.10;;
17796;SDS011;55596;53.554;9.916;2023-03-31T13:19:56;6.07;;;2.90;;
17796;SDS011;55596;53.554;9.916;2023-03-31T13:22:39;7.23;;;2.97;;
17796;SDS011;55596;53.554;9.916;2023-03-31T13:25:26;4.53;;;3.13;;
17796;SDS011;55596;53.554;9.916;2023-03-31T13:28:08;6.93;;;3.40;;
17796;SDS011;55596;53.554;9.916;2023-03-31T13:30:53;6.73;;;2.87;;
17796;SDS011;55596;53.554;9.916;2023-03-31T13:33:27;6.60;;;3.10;;
17796;SDS011;55596;53.554;9.916;2023-03-31T13:39:07;4.57;;;2.50;;
17796;SDS011;55596;53.554;9.916;2023-03-31T13:41:48;4.73;;;2.40;;
17796;SDS011;55596;53.554;9.916;2023-03-31T13:47:38;5.70;;;2.63;;
17796;SDS011;55596;53.554;9.916;2023-03-31T13:50:31;4.13;;;2.30;;
17796;SDS011;55596;53.554;9.916;2023-03-31T13:53:21;6.90;;;2.73;;
17796;SDS011;55596;53.554;9.916;2023-03-31T13:58:56;5.57;;;2.60;;
17796;SDS011;55596;53.554;9.916;2023-03-31T14:01:45;4.33;;;1.90;;
17796;SDS011;55596;53.554;9.916;2023-03-31T14:04:29;2.60;;;1.63;;
17796;SDS011;55596;53.554;9.916;2023-03-31T14:07:25;5.27;;;1.57;;
17796;SDS011;55596;53.554;9.916;2023-03-31T14:09:57;3.73;;;1.33;;
17796;SDS011;55596;53.554;9.916;2023-03-31T14:12:29;2.90;;;1.60;;
17796;SDS011;55596;53.554;9.916;2023-03-31T14:14:57;2.63;;;1.20;;
17796;SDS011;55596;53.554;9.916;2023-03-31T14:17:25;1.60;;;1.03;;
17796;SDS011;55596;53.554;9.916;2023-03-31T14:19:59;2.70;;;1.20;;
17796;SDS011;55596;53.554;9.916;2023-03-31T14:22:49;2.40;;;1.03;;
17796;SDS011;55596;53.554;9.916;2023-03-31T14:25:28;1.60;;;0.80;;
17796;SDS011;55596;53.554;9.916;2023-03-31T14:28:08;4.97;;;1.30;;
17796;SDS011;55596;53.554;9.916;2023-03-31T14:30:49;3.80;;;1.33;;
17796;SDS011;55596;53.554;9.916;2023-03-31T14:33:29;3.57;;;1.40;;
17796;SDS011;55596;53.554;9.916;2023-03-31T14:36:05;2.53;;;1.30;;
17796;SDS011;55596;53.554;9.916;2023-03-31T14:38:38;2.33;;;1.33;;
17796;SDS011;55596;53.554;9.916;2023-03-31T14:41:05;3.23;;;1.50;;
17796;SDS011;55596;53.554;9.916;2023-03-31T14:43:42;2.50;;;1.47;;
17796;SDS011;55596;53.554;9.916;2023-03-31T14:46:17;4.53;;;1.30;;
17796;SDS011;55596;53.554;9.916;2023-03-31T14:48:46;2.10;;;1.37;;
17796;SDS011;55596;53.554;9.916;2023-03-31T14:51:15;2.70;;;1.50;;
17796;SDS011;55596;53.554;9.916;2023-03-31T14:53:45;2.27;;;1.20;;
17796;SDS011;55596;53.554;9.916;2023-03-31T14:56:13;3.37;;;1.30;;
17796;SDS011;55596;53.554;9.916;2023-03-31T14:58:46;3.63;;;1.67;;
17796;SDS011;55596;53.554;9.916;2023-03-31T15:01:17;2.00;;;1.10;;
17796;SDS011;55596;53.554;9.916;2023-03-31T15:03:48;3.00;;;1.00;;
17796;SDS011;55596;53.554;9.916;2023-03-31T15:06:17;4.10;;;1.33;;
17796;SDS011;55596;53.554;9.916;2023-03-31T15:08:46;2.07;;;1.00;;
17796;SDS011;55596;53.554;9.916;2023-03-31T15:11:13;3.07;;;1.20;;
17796;SDS011;55596;53.554;9.916;2023-03-31T15:13:42;3.33;;;1.40;;
17796;SDS011;55596;53.554;9.916;2023-03-31T15:16:20;2.60;;;1.50;;
17796;SDS011;55596;53.554;9.916;2023-03-31T15:18:55;1.73;;;1.03;;
17796;SDS011;55596;53.554;9.916;2023-03-31T15:21:24;2.93;;;0.97;;
17796;SDS011;55596;53.554;9.916;2023-03-31T15:23:55;2.17;;;1.10;;
17796;SDS011;55596;53.554;9.916;2023-03-31T15:26:23;3.83;;;0.97;;
17796;SDS011;55596;53.554;9.916;2023-03-31T15:28:55;1.63;;;0.90;;
17796;SDS011;55596;53.554;9.916;2023-03-31T15:31:26;2.17;;;1.20;;